Time;durP1;ratioP1;P1;durP2;ratioP2;P2;SDS_P1;SDS_P2;PMS_P1;PMS_P2;Temp;Humidity;BMP_temperature;BMP_pressure;BME280_temperature;BME280_humidity;BME280_pressure;Samples;Min_cycle;Max_cycle;Signal;HPM_P1;HPM_P2
2022/08/19 00:00:35;;;;;;;6.88;6.35;;;;;;;22.82;75.25;100464.50;4977909;28;103880;-54
2022/08/19 00:03:03;;;;;;;6.78;6.18;;;;;;;22.83;75.23;100456.97;4978637;28;102217;-53
2022/08/19 00:05:31;;;;;;;6.47;5.97;;;;;;;22.83;75.14;100459.75;4977544;28;102287;-54
2022/08/19 00:07:58;;;;;;;6.45;5.88;;;;;;;22.83;75.32;100456.97;4979215;28;102220;-54
2022/08/19 00:10:25;;;;;;;6.22;5.70;;;;;;;22.83;75.38;100463.38;4977791;28;103727;-53
2022/08/19 00:12:52;;;;;;;6.35;5.80;;;;;;;22.83;75.29;100459.75;4978198;28;102055;-53
2022/08/19 00:15:21;;;;;;;5.88;5.45;;;;;;;22.83;75.25;100456.97;4977988;28;102006;-53
2022/08/19 00:17:47;;;;;;;5.78;5.38;;;;;;;22.83;75.27;100456.97;4978936;28;102146;-54
2022/08/19 00:20:19;;;;;;;6.80;6.20;;;;;;;22.82;75.27;100455.38;4977259;28;103956;-54
2022/08/19 00:22:47;;;;;;;6.43;5.93;;;;;;;22.83;75.38;100452.25;4978477;28;102266;-53
2022/08/19 00:25:15;;;;;;;6.00;5.50;;;;;;;22.82;75.23;100450.63;4978002;28;102567;-53
2022/08/19 00:27:41;;;;;;;6.00;5.50;;;;;;;22.82;75.28;100449.84;4976690;28;102143;-54
2022/08/19 00:30:10;;;;;;;6.43;5.93;;;;;;;22.83;75.30;100448.66;4967557;28;104135;-53
2022/08/19 00:32:37;;;;;;;6.90;5.63;;;;;;;22.83;75.28;100456.97;4978378;28;101849;-54
2022/08/19 00:35:04;;;;;;;6.32;5.82;;;;;;;22.81;75.25;100448.22;4977289;28;101907;-54
2022/08/19 00:37:34;;;;;;;6.00;5.50;;;;;;;22.82;75.20;100460.94;4972115;28;102122;-54
2022/08/19 00:40:02;;;;;;;6.05;5.60;;;;;;;22.82;75.30;100449.84;4956557;28;103860;-53
2022/08/19 00:42:29;;;;;;;7.15;6.50;;;;;;;22.81;75.23;100454.59;4958621;28;102115;-53
2022/08/19 00:44:56;;;;;;;6.35;5.85;;;;;;;22.81;75.34;100449.03;4961283;28;102182;-54
2022/08/19 00:47:22;;;;;;;6.07;5.57;;;;;;;22.81;75.33;100443.47;4979522;28;102332;-53
2022/08/19 00:49:52;;;;;;;6.93;6.35;;;;;;;22.81;75.33;100449.03;4996954;28;103914;-54
2022/08/19 00:52:22;;;;;;;6.10;5.60;;;;;;;22.81;75.23;100443.47;4997495;28;102115;-53
2022/08/19 00:54:52;;;;;;;6.78;6.28;;;;;;;22.81;75.24;100437.13;4983703;28;102077;-53
2022/08/19 00:57:24;;;;;;;6.55;6.05;;;;;;;22.79;75.40;100435.53;4974231;28;102234;-53
2022/08/19 00:59:54;;;;;;;6.70;6.10;;;;;;;22.78;75.31;100431.13;4957237;28;103996;-53
2022/08/19 01:02:20;;;;;;;6.82;6.22;;;;;;;22.79;75.14;100430.00;4969712;28;102476;-53
2022/08/19 01:04:47;;;;;;;6.30;5.80;;;;;;;22.78;75.44;100433.91;4976044;28;102520;-54
2022/08/19 01:07:13;;;;;;;7.10;6.45;;;;;;;22.80;75.32;100441.88;4978327;28;102300;-53
2022/08/19 01:09:40;;;;;;;6.82;6.32;;;;;;;22.81;75.37;100442.69;4976088;28;103968;-53
2022/08/19 01:12:08;;;;;;;6.60;6.10;;;;;;;22.81;75.25;100442.69;4977633;28;102393;-53
2022/08/19 01:14:36;;;;;;;6.50;5.93;;;;;;;22.79;75.33;100446.63;4976656;28;102338;-53
2022/08/19 01:17:04;;;;;;;6.78;6.18;;;;;;;22.78;75.43;100447.78;4978150;28;102533;-53
2022/08/19 01:19:35;;;;;;;6.82;6.25;;;;;;;22.79;75.63;100452.19;4975992;28;103888;-53
2022/08/19 01:22:06;;;;;;;6.00;5.60;;;;;;;22.81;75.41;100453.78;4977415;28;102096;-53
2022/08/19 01:24:35;;;;;;;6.53;6.03;;;;;;;22.80;75.15;100447.44;4976616;28;102166;-54
2022/08/19 01:27:04;;;;;;;6.63;5.90;;;;;;;22.79;75.46;100441.09;4977025;28;102128;-53
2022/08/19 01:29:30;;;;;;;6.55;6.03;;;;;;;22.81;75.26;100437.13;4961452;28;103960;-53
2022/08/19 01:31:59;;;;;;;6.10;5.60;;;;;;;22.81;75.31;100437.13;4977554;28;102169;-54
2022/08/19 01:34:25;;;;;;;5.95;5.45;;;;;;;22.79;75.18;100435.53;4986557;28;102334;-53
2022/08/19 01:36:52;;;;;;;6.85;6.25;;;;;;;22.81;75.17;100429.63;4985688;28;102138;-53
2022/08/19 01:39:21;;;;;;;5.82;5.43;;;;;;;22.80;75.36;100430.78;4983582;28;103961;-54
2022/08/19 01:41:49;;;;;;;6.03;5.53;;;;;;;22.81;75.34;100431.59;4997370;28;102119;-54
2022/08/19 01:44:17;;;;;;;6.53;6.03;;;;;;;22.79;75.10;100435.53;4996338;28;102128;-53
2022/08/19 01:46:45;;;;;;;5.63;5.23;;;;;;;22.80;75.17;100436.34;4994484;28;102247;-53
2022/08/19 01:49:11;;;;;;;6.07;5.57;;;;;;;22.79;75.32;100441.09;4976068;28;104213;-54
2022/08/19 01:51:38;;;;;;;5.63;5.18;;;;;;;22.78;75.38;100445.00;4975848;28;102253;-54
2022/08/19 01:54:05;;;;;;;6.80;6.30;;;;;;;22.79;75.18;100446.63;4974684;28;102494;-53
2022/08/19 01:56:33;;;;;;;6.00;5.50;;;;;;;22.79;75.24;100441.09;4971343;28;102448;-53
2022/08/19 01:59:04;;;;;;;6.72;6.18;;;;;;;22.79;75.41;100452.19;4975477;28;103892;-54
2022/08/19 02:01:34;;;;;;;6.72;6.13;;;;;;;22.79;75.36;100448.56;4977214;28;102211;-54
2022/08/19 02:04:01;;;;;;;5.93;5.50;;;;;;;22.78;75.28;100450.56;4973827;28;101933;-53
2022/08/19 02:06:28;;;;;;;6.25;5.65;;;;;;;22.79;75.33;100456.91;4965545;28;102185;-53
2022/08/19 02:08:55;;;;;;;6.32;5.72;;;;;;;22.79;75.17;100456.91;4976520;28;103866;-54
2022/08/19 02:11:26;;;;;;;6.03;5.50;;;;;;;22.78;75.20;100456.09;4976533;28;101906;-54
2022/08/19 02:13:53;;;;;;;5.50;5.10;;;;;;;22.79;75.25;100451.34;4976641;28;102275;-53
2022/08/19 02:16:22;;;;;;;6.10;5.60;;;;;;;22.78;75.26;100458.88;4978007;28;102512;-53
2022/08/19 02:18:49;;;;;;;6.00;5.50;;;;;;;22.79;75.56;100456.91;4975830;28;104160;-53
2022/08/19 02:21:16;;;;;;;5.43;5.03;;;;;;;22.77;75.35;100460.03;4957504;28;102018;-54
2022/08/19 02:23:43;;;;;;;6.05;5.55;;;;;;;22.77;75.33;100457.28;4956813;28;102249;-53
2022/08/19 02:26:10;;;;;;;5.93;5.53;;;;;;;22.78;75.29;100461.66;4957853;28;102129;-53
2022/08/19 02:28:37;;;;;;;5.75;5.25;;;;;;;22.79;75.12;100462.44;4973690;28;103720;-53
2022/08/19 02:31:08;;;;;;;5.82;5.35;;;;;;;22.79;75.43;100465.22;4976642;28;102376;-53
2022/08/19 02:33:36;;;;;;;5.45;5.05;;;;;;;22.78;75.37;100467.19;4975664;28;102374;-53
2022/08/19 02:36:04;;;;;;;6.60;6.00;;;;;;;22.77;75.44;100471.16;4977156;28;102283;-53
2022/08/19 02:38:32;;;;;;;6.30;5.80;;;;;;;22.77;75.38;100479.47;4975801;28;104162;-53
2022/08/19 02:41:03;;;;;;;5.90;5.40;;;;;;;22.77;75.35;100490.56;4977041;28;102094;-54
2022/08/19 02:43:32;;;;;;;5.85;5.35;;;;;;;22.77;75.25;100496.13;4973693;28;102394;-52
2022/08/19 02:45:58;;;;;;;5.20;4.80;;;;;;;22.77;75.18;100492.53;4957810;28;102536;-53
2022/08/19 02:48:25;;;;;;;5.95;5.25;;;;;;;22.77;75.29;100482.25;4964727;28;103952;-53
2022/08/19 02:50:56;;;;;;;6.10;5.60;;;;;;;22.77;75.18;100487.00;4976727;28;102184;-54
2022/08/19 02:53:26;;;;;;;5.55;5.05;;;;;;;22.77;75.05;100493.34;4975392;28;103536;-53
2022/08/19 02:55:53;;;;;;;6.22;5.72;;;;;;;22.76;75.18;100486.19;4977168;28;102252;-53
2022/08/19 02:58:20;;;;;;;5.72;5.30;;;;;;;22.75;75.24;100490.09;4967094;28;103861;-53
2022/08/19 03:00:48;;;;;;;5.45;5.05;;;;;;;22.76;75.23;100480.63;4973911;28;102074;-54
2022/08/19 03:03:15;;;;;;;;;;;;;;;22.77;75.25;100487.78;4977868;28;102345;-54
2022/08/19 03:05:43;;;;;;;7.88;5.20;;;;;;;22.76;75.21;100477.88;4979668;28;102530;-53
2022/08/19 03:08:12;;;;;;;5.95;5.32;;;;;;;22.77;75.22;100478.66;4978685;28;103868;-55
2022/08/19 03:10:43;;;;;;;5.50;5.10;;;;;;;22.77;75.21;100482.25;4960538;28;102254;-53
2022/08/19 03:13:15;;;;;;;5.45;4.95;;;;;;;22.78;75.19;100488.59;4959744;28;102369;-53
2022/08/19 03:15:46;;;;;;;5.57;5.15;;;;;;;22.76;75.06;100480.63;4965556;28;101975;-53
2022/08/19 03:18:13;;;;;;;5.03;4.63;;;;;;;22.77;75.24;100487.78;4972568;28;104701;-54
2022/08/19 03:20:42;;;;;;;5.95;5.45;;;;;;;22.77;75.22;100492.53;4960117;28;101862;-53
2022/08/19 03:23:10;;;;;;;5.60;5.10;;;;;;;22.76;75.19;100491.75;4959409;28;102040;-53
2022/08/19 03:25:38;;;;;;;5.90;5.13;;;;;;;22.76;75.17;100497.28;4959962;28;102571;-53
2022/08/19 03:28:05;;;;;;;5.93;5.32;;;;;;;22.77;75.29;100496.13;4975624;28;103920;-54
2022/08/19 03:30:32;;;;;;;5.40;5.00;;;;;;;22.76;75.10;100488.97;4978641;28;102191;-53
2022/08/19 03:32:58;;;;;;;6.05;5.53;;;;;;;22.76;75.25;100490.94;4978909;28;102271;-54
2022/08/19 03:35:25;;;;;;;6.13;5.63;;;;;;;22.76;75.34;100486.19;4979120;28;102408;-54
2022/08/19 03:37:52;;;;;;;5.63;4.90;;;;;;;22.76;75.27;100491.75;4978025;28;103927;-54
2022/08/19 03:40:20;;;;;;;5.77;5.37;;;;;;;22.77;75.30;100498.09;4978677;28;102387;-54
2022/08/19 03:42:47;;;;;;;5.50;5.00;;;;;;;22.76;75.17;100491.75;4978690;28;102251;-54
2022/08/19 03:45:13;;;;;;;5.40;5.00;;;;;;;22.76;75.37;100491.75;4977167;28;102422;-53
2022/08/19 03:47:41;;;;;;;5.78;5.38;;;;;;;22.76;75.36;100488.97;4958259;28;104093;-54
2022/08/19 03:50:08;;;;;;;5.55;5.05;;;;;;;22.77;75.37;100492.53;4959107;28;102663;-53
2022/08/19 03:52:35;;;;;;;5.82;5.32;;;;;;;22.76;75.29;100494.50;4977177;28;102344;-54
2022/08/19 03:55:03;;;;;;;5.50;5.00;;;;;;;22.77;75.38;100509.97;4978607;28;102147;-53
2022/08/19 03:57:32;;;;;;;5.60;5.20;;;;;;;22.75;75.23;100506.75;4977475;28;103986;-54
2022/08/19 03:59:58;;;;;;;5.03;4.63;;;;;;;22.76;75.40;100504.81;4978007;28;102020;-54
2022/08/19 04:02:25;;;;;;;5.97;5.40;;;;;;;22.77;75.31;100509.97;4978288;28;101937;-54
2022/08/19 04:04:54;;;;;;;5.57;5.18;;;;;;;22.77;75.27;100521.09;4969577;28;102155;-54
2022/08/19 04:07:21;;;;;;;5.93;5.43;;;;;;;22.77;75.19;100521.09;4962233;28;104103;-53
2022/08/19 04:09:47;;;;;;;5.80;5.30;;;;;;;22.77;75.33;100526.63;4977281;28;102029;-54
2022/08/19 04:12:14;;;;;;;6.03;5.53;;;;;;;22.77;75.29;100528.59;4972412;28;102222;-54
2022/08/19 04:14:44;;;;;;;6.22;5.53;;;;;;;22.78;75.21;100516.34;4978594;28;102689;-54
2022/08/19 04:17:10;;;;;;;6.07;5.57;;;;;;;22.78;75.17;100533.78;4978083;28;103921;-54
2022/08/19 04:19:38;;;;;;;6.32;5.72;;;;;;;22.79;75.05;100534.59;4977517;28;102233;-53
2022/08/19 04:22:05;;;;;;;6.68;6.07;;;;;;;22.77;75.36;100532.19;4977882;28;102077;-54
2022/08/19 04:24:32;;;;;;;6.18;5.68;;;;;;;22.78;75.34;100528.22;4959479;28;102176;-54
2022/08/19 04:26:59;;;;;;;7.20;6.43;;;;;;;22.78;75.24;100531.00;4974876;28;103913;-54
2022/08/19 04:29:26;;;;;;;6.13;5.55;;;;;;;22.78;75.28;100532.97;4961942;28;102497;-54
2022/08/19 04:31:56;;;;;;;6.57;5.97;;;;;;;22.77;75.40;100532.19;4977119;28;102490;-54
2022/08/19 04:34:24;;;;;;;5.68;5.28;;;;;;;22.79;75.21;100534.59;4978010;28;102155;-54
2022/08/19 04:36:52;;;;;;;6.25;5.65;;;;;;;22.78;75.24;100531.00;4967823;28;103981;-53
2022/08/19 04:42:38;;;;;;;6.07;5.57;;;;;;;22.79;75.42;100529.88;4962301;28;102433;-54
2022/08/19 04:45:00;;;;;;;5.57;5.18;;;;;;;22.78;75.11;100528.22;4975910;28;102483;-54
2022/08/19 04:47:29;;;;;;;6.50;5.70;;;;;;;22.79;75.20;100524.31;4977107;28;103848;-53
2022/08/19 04:49:55;;;;;;;5.88;5.38;;;;;;;22.79;75.16;100534.59;4966172;28;102576;-54
2022/08/19 04:52:22;;;;;;;6.38;5.88;;;;;;;22.79;75.17;100532.63;4980620;28;102275;-54
2022/08/19 04:54:48;;;;;;;6.50;5.97;;;;;;;22.78;75.23;100533.78;4960741;28;102191;-54
2022/08/19 04:57:15;;;;;;;7.10;6.40;;;;;;;22.79;75.22;100537.34;4967333;28;104029;-54
2022/08/19 04:59:41;;;;;;;6.72;6.13;;;;;;;22.79;75.17;100540.97;4958743;28;101992;-54
2022/08/19 05:02:09;;;;;;;6.30;5.70;;;;;;;22.78;75.17;100539.34;4957758;28;102299;-54
2022/08/19 05:04:39;;;;;;;6.82;6.13;;;;;;;22.79;75.36;100538.19;4957931;28;102603;-54
2022/08/19 05:07:06;;;;;;;6.80;6.03;;;;;;;22.79;75.30;100546.50;4958018;28;103827;-54
2022/08/19 05:09:34;;;;;;;5.95;5.45;;;;;;;22.80;75.28;100541.75;4973415;28;102282;-54
2022/08/19 05:12:05;;;;;;;6.07;5.18;;;;;;;22.80;75.34;100544.53;4977279;28;102058;-54
2022/08/19 05:14:33;;;;;;;6.18;5.68;;;;;;;22.81;75.21;100537.00;4978107;28;102219;-53
2022/08/19 05:17:01;;;;;;;6.30;5.80;;;;;;;22.81;75.26;100535.03;4966482;28;104212;-54
2022/08/19 05:22:34;;;;;;;6.05;5.53;;;;;;;22.81;74.96;100543.38;4957592;28;102312;-54
2022/08/19 05:25:05;;;;;;;7.45;6.50;;;;;;;22.82;75.11;100533.88;4962866;28;102407;-54
2022/08/19 05:27:32;;;;;;;7.03;5.95;;;;;;;22.84;75.16;100536.31;4976886;28;103907;-54
2022/08/19 05:29:58;;;;;;;5.75;5.25;;;;;;;22.84;75.18;100539.88;4976103;28;102237;-54
2022/08/19 05:32:25;;;;;;;6.63;6.10;;;;;;;22.85;75.14;100538.72;4977033;28;102262;-54
2022/08/19 05:34:52;;;;;;;6.80;6.20;;;;;;;22.84;75.05;100537.09;4960841;28;102126;-54
2022/08/19 05:37:21;;;;;;;7.00;6.30;;;;;;;22.86;75.24;100539.50;4973946;28;103991;-53
2022/08/19 05:39:48;;;;;;;7.15;6.45;;;;;;;22.88;75.20;100539.97;4977183;28;102032;-54
2022/08/19 05:42:16;;;;;;;6.40;5.90;;;;;;;22.88;75.00;100528.88;4976511;28;102216;-50
2022/08/19 05:44:44;;;;;;;6.20;5.70;;;;;;;22.88;75.20;100539.97;4977167;28;102184;-53
2022/08/19 05:47:13;;;;;;;6.65;6.05;;;;;;;22.89;75.01;100528.50;4978497;28;103954;-52
2022/08/19 05:49:39;;;;;;;7.32;6.72;;;;;;;22.88;74.79;100531.66;4980105;28;102296;-53
2022/08/19 05:52:10;;;;;;;7.95;6.32;;;;;;;22.90;74.93;100527.34;4980613;28;102206;-53
2022/08/19 05:54:41;;;;;;;7.43;6.72;;;;;;;22.91;74.70;100526.19;4976618;28;102235;-53
2022/08/19 05:57:08;;;;;;;5.95;5.45;;;;;;;22.94;74.87;100530.25;4974020;28;104134;-53
2022/08/19 05:59:35;;;;;;;6.32;5.82;;;;;;;22.94;74.85;100535.78;4976207;28;102339;-53
2022/08/19 06:02:03;;;;;;;7.45;6.85;;;;;;;22.95;75.00;100529.06;4970580;28;101896;-54
2022/08/19 06:04:29;;;;;;;7.53;6.90;;;;;;;22.97;74.81;100535.06;4962667;28;102314;-53
2022/08/19 06:06:58;;;;;;;7.18;5.70;;;;;;;22.97;74.83;100523.94;4977095;28;103961;-54
2022/08/19 06:09:25;;;;;;;7.73;7.10;;;;;;;22.98;74.86;100523.59;4961456;28;102492;-54
2022/08/19 06:11:59;;;;;;;6.57;6.05;;;;;;;23.00;74.72;100531.56;4956978;28;102167;-53
2022/08/19 06:14:28;;;;;;;7.13;6.53;;;;;;;23.00;74.69;100528.78;4960001;28;102587;-54
2022/08/19 06:16:56;;;;;;;7.32;6.72;;;;;;;23.01;74.86;100538.75;4956016;28;104030;-53
2022/08/19 06:19:24;;;;;;;7.93;6.95;;;;;;;23.02;74.64;100540.34;4957197;28;102149;-53
2022/08/19 06:21:52;;;;;;;8.00;5.93;;;;;;;23.02;74.66;100537.56;4956809;28;102376;-54
2022/08/19 06:24:23;;;;;;;7.07;6.47;;;;;;;23.04;74.86;100543.53;4964777;28;102191;-54
2022/08/19 06:26:52;;;;;;;6.45;5.95;;;;;;;23.03;74.71;100544.72;4975511;28;103927;-54
2022/08/19 06:29:24;;;;;;;6.97;6.35;;;;;;;23.03;74.66;100544.72;4965474;28;102448;-54
2022/08/19 06:31:52;;;;;;;6.50;6.00;;;;;;;23.05;74.61;100547.94;4976367;28;102392;-54
2022/08/19 06:34:19;;;;;;;7.25;6.60;;;;;;;23.05;74.83;100553.50;4976853;28;102482;-54
2022/08/19 06:36:48;;;;;;;7.05;5.97;;;;;;;23.05;74.86;100553.50;4977693;28;104304;-53
2022/08/19 06:39:16;;;;;;;7.28;6.68;;;;;;;23.07;74.61;100553.94;4971412;28;102251;-54
2022/08/19 06:41:45;;;;;;;;;;;;;;;23.08;74.50;100551.97;4978534;28;102613;-54
2022/08/19 06:44:12;;;;;;;6.72;5.97;;;;;;;23.07;74.68;100545.59;4965430;28;102558;-54
2022/08/19 06:46:41;;;;;;;6.03;5.60;;;;;;;23.09;74.50;100542.50;4959346;28;104149;-54
2022/08/19 06:49:13;;;;;;;;;;;;;;;23.07;74.57;100545.59;4961192;28;102266;-53
2022/08/19 06:51:41;;;;;;;6.80;6.20;;;;;;;23.10;74.68;100544.88;4959666;28;102098;-54
2022/08/19 06:54:08;;;;;;;6.20;5.70;;;;;;;23.11;74.51;100540.94;4968256;28;102485;-54
2022/08/19 06:56:35;;;;;;;7.03;6.47;;;;;;;23.12;74.56;100539.00;4975002;28;104650;-54
2022/08/19 06:59:03;;;;;;;6.15;5.65;;;;;;;23.13;74.36;100544.16;4988928;28;102666;-54
2022/08/19 07:01:29;;;;;;;7.03;6.47;;;;;;;23.12;74.28;100537.03;4978348;28;102313;-53
2022/08/19 07:03:57;;;;;;;6.68;6.07;;;;;;;23.13;74.46;100527.53;4978135;28;102181;-53
2022/08/19 07:06:24;;;;;;;7.00;6.40;;;;;;;23.14;74.42;100529.13;4977911;28;104044;-54
2022/08/19 07:08:51;;;;;;;7.18;6.57;;;;;;;23.15;74.15;100522.44;4979211;28;101992;-54
2022/08/19 07:11:19;;;;;;;6.38;5.88;;;;;;;23.16;74.28;100529.56;4978407;28;102467;-54
2022/08/19 07:13:48;;;;;;;7.60;6.88;;;;;;;23.16;74.13;100524.03;4977953;28;102318;-54
2022/08/19 07:16:19;;;;;;;7.35;6.65;;;;;;;23.17;74.12;100522.84;4967472;28;103845;-54
2022/08/19 07:18:46;;;;;;;7.20;6.50;;;;;;;23.19;74.11;100519.72;4970392;28;102129;-54
2022/08/19 07:21:16;;;;;;;6.97;6.20;;;;;;;23.20;74.15;100527.69;4958744;28;102353;-53
2022/08/19 07:23:44;;;;;;;7.50;6.90;;;;;;;23.19;74.14;100528.88;4960250;28;102182;-53
2022/08/19 07:26:13;;;;;;;7.05;6.43;;;;;;;23.20;74.10;100536.00;4957605;28;107970;-53
2022/08/19 07:28:42;;;;;;;7.50;6.70;;;;;;;23.21;73.99;100534.84;4959566;28;102170;-53
2022/08/19 07:31:10;;;;;;;7.15;6.32;;;;;;;23.22;74.04;100541.19;4971879;28;102325;-53
2022/08/19 07:33:37;;;;;;;7.53;6.93;;;;;;;23.23;73.93;100549.19;4969440;28;102432;-54
2022/08/19 07:36:06;;;;;;;7.50;6.90;;;;;;;23.24;73.96;100553.56;4977439;28;103936;-53
2022/08/19 07:38:34;;;;;;;7.32;6.63;;;;;;;23.24;73.86;100550.78;4978400;28;102208;-54
2022/08/19 07:41:01;;;;;;;6.70;6.13;;;;;;;23.25;73.89;100544.06;4978191;28;102592;-54
2022/08/19 07:43:28;;;;;;;6.70;6.10;;;;;;;23.26;73.66;100545.69;4978958;28;102142;-54
2022/08/19 07:45:58;;;;;;;6.90;6.40;;;;;;;23.26;73.90;100547.63;4979581;28;104071;-53
2022/08/19 07:48:25;;;;;;;8.30;6.75;;;;;;;23.26;73.93;100545.69;4977659;28;102468;-53
2022/08/19 07:50:52;;;;;;;8.23;7.38;;;;;;;23.27;73.95;100552.84;4982136;28;102775;-53
2022/08/19 07:53:19;;;;;;;7.03;6.32;;;;;;;23.28;73.73;100550.88;4980693;28;102226;-54
2022/08/19 07:55:48;;;;;;;7.45;6.75;;;;;;;23.29;73.71;100551.66;4973371;28;104002;-53
2022/08/19 07:58:18;;;;;;;6.53;5.93;;;;;;;23.29;73.74;100552.47;4973756;28;102409;-53
2022/08/19 08:00:46;;;;;;;6.93;6.22;;;;;;;23.30;73.72;100550.50;4981873;28;102268;-54
2022/08/19 08:03:15;;;;;;;7.75;6.95;;;;;;;23.30;73.80;100553.25;4980728;28;102329;-54
2022/08/19 08:11:19;;;;;;;7.30;6.63;;;;;;;23.32;73.43;100559.28;4971204;28;102397;-54
2022/08/19 08:13:45;;;;;;;6.43;5.82;;;;;;;23.33;73.62;100552.53;4979085;28;102402;-54
2022/08/19 08:16:11;;;;;;;7.18;6.25;;;;;;;23.33;73.23;100552.53;4976865;28;103860;-53
2022/08/19 08:18:41;;;;;;;7.47;6.78;;;;;;;23.34;73.50;100556.94;4978343;28;101926;-54
2022/08/19 08:21:08;;;;;;;8.02;6.70;;;;;;;23.33;73.46;100560.88;4958049;28;102075;-54
2022/08/19 08:23:35;;;;;;;6.53;6.03;;;;;;;23.34;73.42;100565.28;4968768;28;102394;-54
2022/08/19 08:26:03;;;;;;;6.85;6.28;;;;;;;23.33;73.56;100558.09;4958042;28;104087;-54
2022/08/19 08:28:32;;;;;;;7.32;6.47;;;;;;;23.33;73.39;100570.00;4975869;28;102257;-54
2022/08/19 08:30:59;;;;;;;7.73;7.03;;;;;;;23.33;73.37;100569.22;4977228;28;102342;-54
2022/08/19 08:33:27;;;;;;;7.53;6.28;;;;;;;23.32;73.49;100562.06;4974578;28;102421;-54
2022/08/19 08:35:53;;;;;;;;;;;;;;;23.32;73.41;100562.06;4969509;28;103977;-54
2022/08/19 08:38:20;;;;;;;7.20;6.50;;;;;;;23.32;73.50;100556.50;4981659;28;102254;-54
2022/08/19 08:40:50;;;;;;;7.85;7.05;;;;;;;23.33;73.48;100552.53;4975348;28;102337;-54
2022/08/19 08:43:26;;;;;;;7.22;6.63;;;;;;;23.32;73.52;100548.16;4978686;28;102230;-54
2022/08/19 08:46:01;;;;;;;7.10;6.45;;;;;;;23.33;73.20;100558.09;4981716;28;103932;-54
2022/08/19 08:48:35;;;;;;;7.28;6.68;;;;;;;23.34;73.36;100554.97;4977498;28;102519;-54
2022/08/19 08:51:04;;;;;;;6.85;6.25;;;;;;;23.36;73.32;100551.81;4970072;28;102574;-54
2022/08/19 08:53:32;;;;;;;7.72;7.03;;;;;;;23.36;73.17;100549.03;4971207;28;102494;-54
2022/08/19 08:56:03;;;;;;;7.40;6.80;;;;;;;23.37;73.36;100550.66;4975971;28;104041;-54
2022/08/19 08:58:42;;;;;;;7.80;6.85;;;;;;;23.38;73.33;100555.06;4968552;28;102390;-53
2022/08/19 09:01:11;;;;;;;7.53;6.82;;;;;;;23.36;73.44;100546.28;4974300;28;102473;-54
2022/08/19 09:03:39;;;;;;;8.52;7.50;;;;;;;23.35;73.29;100544.66;4978080;28;102389;-54
2022/08/19 09:06:11;;;;;;;8.23;7.43;;;;;;;23.36;73.46;100557.38;4976112;28;103921;-54
2022/08/19 09:08:45;;;;;;;7.55;6.95;;;;;;;23.36;73.43;100560.97;4968198;28;102002;-54
2022/08/19 09:11:19;;;;;;;8.50;6.93;;;;;;;23.39;73.57;100573.31;4961370;28;102304;-54
2022/08/19 09:14:01;;;;;;;7.32;6.63;;;;;;;23.41;73.19;100571.00;4959628;28;102767;-54
2022/08/19 09:16:30;;;;;;;7.28;6.68;;;;;;;23.40;73.37;100574.91;4974306;28;103851;-54
2022/08/19 09:19:01;;;;;;;8.60;6.80;;;;;;;23.41;73.43;100571.00;4979590;28;102302;-54
2022/08/19 09:21:28;;;;;;;7.78;7.03;;;;;;;23.39;73.36;100573.31;4967986;28;102810;-53
2022/08/19 09:23:55;;;;;;;7.68;7.05;;;;;;;23.39;73.50;100570.53;4974300;28;102740;-53
2022/08/19 09:26:22;;;;;;;8.05;7.35;;;;;;;23.38;73.23;100578.06;4971789;28;103907;-54
2022/08/19 09:28:52;;;;;;;7.82;6.97;;;;;;;23.39;73.23;100584.44;4973361;28;102422;-53
2022/08/19 09:31:22;;;;;;;10.38;6.60;;;;;;;23.38;73.47;100582.81;4975685;28;102273;-53
2022/08/19 09:33:52;;;;;;;8.00;7.20;;;;;;;23.37;73.44;100570.91;4971561;28;102087;-54
2022/08/19 09:36:22;;;;;;;8.00;7.30;;;;;;;23.37;73.20;100570.09;4972107;28;103945;-53
2022/08/19 09:38:49;;;;;;;7.53;6.90;;;;;;;23.37;73.33;100570.09;4973671;28;102207;-53
2022/08/19 09:41:18;;;;;;;8.20;7.35;;;;;;;23.33;73.29;100570.00;4975431;28;102263;-53
2022/08/19 09:43:47;;;;;;;8.45;7.53;;;;;;;23.33;73.32;100574.75;4975588;28;102295;-53
2022/08/19 09:46:16;;;;;;;7.80;7.20;;;;;;;23.34;73.35;100574.41;4968551;28;103889;-54
2022/08/19 09:48:44;;;;;;;7.82;7.00;;;;;;;23.35;73.35;100569.66;4967254;28;101947;-54
2022/08/19 09:51:17;;;;;;;10.13;6.70;;;;;;;23.34;73.18;100573.63;4975680;28;102128;-52
2022/08/19 09:53:44;;;;;;;9.57;8.35;;;;;;;23.33;73.38;100569.22;4976771;28;101985;-53
2022/08/19 09:56:12;;;;;;;7.75;6.95;;;;;;;23.34;73.30;100570.84;4972809;28;103949;-53
2022/08/19 09:58:39;;;;;;;8.88;8.00;;;;;;;23.32;73.34;100584.25;4979327;28;102198;-53
2022/08/19 10:01:07;;;;;;;7.72;7.03;;;;;;;23.32;73.08;100570.38;4962955;28;102170;-53
2022/08/19 10:03:36;;;;;;;8.00;7.30;;;;;;;23.34;73.33;100570.84;4975466;28;102136;-53
2022/08/19 10:06:04;;;;;;;7.90;7.18;;;;;;;23.33;73.39;100577.53;4968721;28;103914;-54
2022/08/19 10:08:35;;;;;;;9.93;8.38;;;;;;;23.33;73.29;100577.53;4964170;28;102174;-53
2022/08/19 10:11:03;;;;;;;7.55;6.88;;;;;;;23.34;73.30;100576.38;4976872;28;102331;-53
2022/08/19 10:13:31;;;;;;;7.85;7.07;;;;;;;23.33;73.56;100575.56;4981745;28;102115;-54
2022/08/19 10:16:05;;;;;;;8.07;7.25;;;;;;;23.33;73.39;100575.56;4978695;28;103790;-54
2022/08/19 10:18:33;;;;;;;8.18;7.35;;;;;;;23.32;73.34;100579.50;4972992;28;102427;-53
2022/08/19 10:21:09;;;;;;;8.52;7.82;;;;;;;23.30;73.45;100581.03;4968953;28;102369;-54
2022/08/19 10:23:38;;;;;;;8.82;7.88;;;;;;;23.30;73.66;100581.03;4981497;28;102745;-53
2022/08/19 10:26:06;;;;;;;8.20;7.50;;;;;;;23.30;73.67;100569.91;4970080;28;103913;-53
2022/08/19 10:28:34;;;;;;;8.35;7.50;;;;;;;23.29;73.41;100568.31;4974444;28;102352;-54
2022/08/19 10:31:04;;;;;;;7.28;6.57;;;;;;;23.26;73.93;100576.22;4974463;28;102085;-54
2022/08/19 10:33:32;;;;;;;8.15;7.45;;;;;;;23.26;73.92;100575.41;4999114;28;102243;-53
2022/08/19 10:35:59;;;;;;;7.95;7.25;;;;;;;23.25;74.03;100580.16;4967581;28;103965;-54
2022/08/19 10:38:26;;;;;;;8.02;7.30;;;;;;;23.26;73.96;100573.44;4980309;28;102327;-54
2022/08/19 10:40:54;;;;;;;8.43;7.72;;;;;;;23.25;74.07;100569.03;4968674;28;102403;-54
2022/08/19 10:43:21;;;;;;;;;;;;;;;23.24;73.98;100575.75;4962706;28;102071;-53
2022/08/19 10:45:51;;;;;;;8.13;7.20;;;;;;;23.25;73.99;100573.78;4967170;28;103833;-54
2022/08/19 10:48:18;;;;;;;8.73;8.02;;;;;;;23.24;74.05;100575.75;4968275;28;102237;-54
2022/08/19 10:53:29;;;;;;;9.00;8.20;;;;;;;23.24;73.95;100567.44;4979798;28;102094;-53
2022/08/19 10:58:42;;;;;;;8.30;7.25;;;;;;;23.23;74.20;100571.38;4973899;28;102180;-53
2022/08/19 11:01:08;;;;;;;8.88;8.18;;;;;;;23.21;74.06;100579.25;4959900;28;102260;-53
2022/08/19 11:03:35;;;;;;;8.80;8.10;;;;;;;23.22;73.91;100580.88;4976957;28;102181;-54
2022/08/19 11:06:05;;;;;;;9.45;8.63;;;;;;;23.22;74.28;100568.97;4967625;28;103953;-54
2022/08/19 11:08:34;;;;;;;9.77;8.98;;;;;;;23.20;74.08;100568.53;4970731;28;101993;-52
2022/08/19 11:11:03;;;;;;;8.38;7.70;;;;;;;23.19;74.26;100570.50;4963816;28;102380;-53
2022/08/19 11:13:33;;;;;;;9.05;8.25;;;;;;;23.20;74.19;100565.75;4979120;28;102276;-53
2022/08/19 11:16:01;;;;;;;9.27;8.48;;;;;;;23.19;73.88;100576.06;4958102;28;104145;-54
2022/08/19 11:18:28;;;;;;;9.55;8.75;;;;;;;23.19;74.29;100564.94;4966940;28;102417;-54
2022/08/19 11:21:05;;;;;;;9.77;8.88;;;;;;;23.20;74.22;100562.97;4978117;28;102470;-54
2022/08/19 11:23:32;;;;;;;9.32;8.43;;;;;;;23.19;74.01;100569.69;4963858;28;102160;-53
2022/08/19 11:25:59;;;;;;;9.63;8.82;;;;;;;23.20;74.09;100566.56;4975369;28;104030;-54
2022/08/19 11:28:28;;;;;;;8.70;8.07;;;;;;;23.21;73.97;100556.25;4959319;28;101935;-54
2022/08/19 11:30:54;;;;;;;8.65;7.95;;;;;;;23.22;73.86;100563.41;4962697;28;102651;-54
2022/08/19 11:33:21;;;;;;;9.38;8.55;;;;;;;23.22;73.87;100566.19;4976111;28;102386;-54
2022/08/19 11:35:47;;;;;;;9.32;8.52;;;;;;;23.20;74.10;100555.44;4973501;28;103890;-54
2022/08/19 11:38:14;;;;;;;9.60;8.63;;;;;;;23.18;74.14;100559.75;4967480;28;102053;-58
2022/08/19 11:40:42;;;;;;;9.70;8.70;;;;;;;23.19;74.21;100564.16;4980131;28;102385;-54